createdAt,value
2024-01-24T00:02:02.859Z,7.05
2024-01-24T00:04:29.896Z,7.05
2024-01-24T00:07:00.079Z,7.12
2024-01-24T00:09:27.107Z,7.11
2024-01-24T00:11:54.780Z,7.09
2024-01-24T00:14:21.544Z,7.08
2024-01-24T00:16:48.396Z,7.09
2024-01-24T00:19:15.414Z,7.07
2024-01-24T00:21:42.369Z,7.07
2024-01-24T00:24:10.154Z,7.06
2024-01-24T00:26:40.141Z,7.08
2024-01-24T00:29:08.879Z,7.04
2024-01-24T00:31:35.851Z,6.99
2024-01-24T00:34:03.510Z,6.97
2024-01-24T00:36:30.311Z,6.91
2024-01-24T00:38:57.047Z,6.83
2024-01-24T00:41:23.900Z,6.78
2024-01-24T00:43:50.654Z,6.68
2024-01-24T00:46:17.316Z,6.58
2024-01-24T00:48:44.257Z,6.53
2024-01-24T00:51:13.600Z,6.46
2024-01-24T00:53:42.064Z,6.41
2024-01-24T00:56:08.762Z,6.35
2024-01-24T00:58:35.639Z,6.34
2024-01-24T01:01:03.212Z,6.33
2024-01-24T01:03:33.318Z,6.34
2024-01-24T01:06:00.214Z,6.37
2024-01-24T01:08:27.797Z,6.37
2024-01-24T01:10:54.409Z,6.35
2024-01-24T01:13:23.929Z,6.34
2024-01-24T01:15:50.673Z,6.35
2024-01-24T01:18:18.688Z,6.34
2024-01-24T01:20:46.048Z,6.33
2024-01-24T01:23:12.769Z,6.31
2024-01-24T01:25:39.405Z,6.29
2024-01-24T01:28:06.365Z,6.28
2024-01-24T01:30:32.999Z,6.26
2024-01-24T01:32:59.871Z,6.13
2024-01-24T01:35:26.582Z,6.04
2024-01-24T01:37:53.179Z,6.05
2024-01-24T01:40:19.945Z,6.08
2024-01-24T01:42:47.068Z,6.11
2024-01-24T01:45:14.148Z,6.13
2024-01-24T01:47:41.235Z,6.25
2024-01-24T01:50:11.633Z,6.29
2024-01-24T01:52:39.944Z,6.34
2024-01-24T01:55:08.171Z,6.35
2024-01-24T01:57:35.565Z,6.35
2024-01-24T02:00:04.035Z,6.46
2024-01-24T02:02:31.132Z,6.45
2024-01-24T02:04:57.852Z,6.46
2024-01-24T02:07:24.833Z,6.52
2024-01-24T02:09:51.551Z,6.50
2024-01-24T02:12:18.166Z,6.52
2024-01-24T02:14:44.731Z,6.53
2024-01-24T02:17:11.325Z,6.50
2024-01-24T02:19:38.271Z,6.50
2024-01-24T02:22:04.900Z,6.50
2024-01-24T02:24:31.587Z,6.52
2024-01-24T02:26:58.278Z,6.56
2024-01-24T02:29:24.834Z,6.60
2024-01-24T02:31:51.572Z,6.64
2024-01-24T02:34:18.332Z,6.66
2024-01-24T02:36:44.997Z,6.77
2024-01-24T02:39:12.546Z,6.77
2024-01-24T02:41:41.348Z,6.80
2024-01-24T02:44:08.096Z,6.85
2024-01-24T02:46:35.486Z,6.97
2024-01-24T02:49:02.718Z,7.08
2024-01-24T02:51:29.601Z,7.07
2024-01-24T02:53:56.504Z,7.18
2024-01-24T02:56:23.202Z,7.24
2024-01-24T02:58:49.818Z,7.33
2024-01-24T03:01:17.322Z,7.49
2024-01-24T03:03:46.928Z,7.49
2024-01-24T03:06:13.781Z,7.48
2024-01-24T03:08:51.134Z,7.52
2024-01-24T03:11:17.861Z,7.55
2024-01-24T03:13:45.195Z,7.63
2024-01-24T03:16:12.047Z,7.70
2024-01-24T03:18:40.277Z,7.91
2024-01-24T03:21:10.124Z,7.94
2024-01-24T03:23:40.375Z,7.91
2024-01-24T03:26:07.819Z,7.94
2024-01-24T03:28:35.453Z,7.99
2024-01-24T03:31:03.246Z,8.11
2024-01-24T03:33:30.106Z,8.20
2024-01-24T03:35:56.792Z,8.23
2024-01-24T03:38:23.871Z,8.23
2024-01-24T03:40:50.569Z,8.24
2024-01-24T03:43:17.156Z,8.30
2024-01-24T03:45:43.833Z,8.33
2024-01-24T03:48:10.524Z,8.37
2024-01-24T03:50:37.152Z,8.46
2024-01-24T03:53:04.076Z,8.51
2024-01-24T03:55:33.031Z,8.54
2024-01-24T03:58:02.681Z,8.69
2024-01-24T04:00:29.368Z,8.78
2024-01-24T04:02:56.042Z,8.80
2024-01-24T04:05:22.731Z,8.83
2024-01-24T04:07:49.383Z,8.78
2024-01-24T04:10:17.194Z,8.80
2024-01-24T04:12:54.600Z,9.00
2024-01-24T04:15:23.787Z,9.11
2024-01-24T04:17:50.582Z,9.06
2024-01-24T04:20:17.489Z,9.23
2024-01-24T04:22:44.084Z,9.35
2024-01-24T04:25:10.701Z,9.38
2024-01-24T04:27:37.531Z,9.41
2024-01-24T04:30:05.768Z,9.40
2024-01-24T04:32:33.254Z,9.48
2024-01-24T04:35:00.170Z,9.42
2024-01-24T04:37:26.954Z,9.55
2024-01-24T04:39:53.785Z,9.55
2024-01-24T04:42:20.641Z,9.68
2024-01-24T04:44:47.462Z,9.70
2024-01-24T04:47:17.065Z,9.71
2024-01-24T04:49:45.680Z,9.70
2024-01-24T04:52:15.428Z,9.73
2024-01-24T04:54:45.331Z,9.74
2024-01-24T04:57:12.056Z,9.74
2024-01-24T04:59:46.599Z,9.75
2024-01-24T05:02:20.922Z,9.80
2024-01-24T05:04:48.922Z,9.84
2024-01-24T05:07:16.053Z,9.81
2024-01-24T05:09:42.827Z,9.86
2024-01-24T05:12:09.452Z,9.82
2024-01-24T05:14:36.178Z,9.85
2024-01-24T05:17:02.876Z,9.90
2024-01-24T05:19:29.871Z,9.98
2024-01-24T05:21:57.671Z,9.95
2024-01-24T05:24:24.491Z,9.94
2024-01-24T05:26:51.089Z,9.98
2024-01-24T05:29:18.016Z,9.93
2024-01-24T05:31:44.747Z,9.91
2024-01-24T05:34:11.547Z,9.89
2024-01-24T05:36:38.560Z,9.99
2024-01-24T05:39:08.704Z,10.15
2024-01-24T05:41:36.782Z,10.13
2024-01-24T05:44:04.586Z,10.10
2024-01-24T05:46:31.523Z,10.24
2024-01-24T05:49:01.922Z,10.26
2024-01-24T05:51:32.717Z,10.34
2024-01-24T05:54:02.118Z,10.33
2024-01-24T05:56:39.323Z,10.28
2024-01-24T05:59:06.608Z,10.30
2024-01-24T06:01:55.070Z,10.30
2024-01-24T06:08:38.235Z,10.49
2024-01-24T06:17:52.558Z,10.53
2024-01-24T06:24:46.190Z,10.79
2024-01-24T06:27:36.606Z,10.71
2024-01-24T06:30:29.800Z,10.84
2024-01-24T06:33:20.391Z,10.81
2024-01-24T06:39:46.321Z,11.04
2024-01-24T06:42:35.099Z,10.92
2024-01-24T06:46:54.939Z,10.87
2024-01-24T06:48:53.912Z,10.86
2024-01-24T06:51:53.011Z,10.86
2024-01-24T06:55:09.665Z,11.00
2024-01-24T06:57:49.188Z,11.02
2024-01-24T07:04:20.534Z,10.98
2024-01-24T07:07:10.889Z,11.10
2024-01-24T07:09:38.728Z,11.07
2024-01-24T07:13:03.584Z,11.01
2024-01-24T07:15:46.616Z,11.17
2024-01-24T07:18:40.025Z,11.23
2024-01-24T07:24:28.064Z,11.18
2024-01-24T07:27:05.424Z,11.36
2024-01-24T07:30:05.863Z,11.40
2024-01-24T07:36:10.187Z,11.52
2024-01-24T07:39:12.522Z,11.48
2024-01-24T07:42:16.847Z,11.52
2024-01-24T07:48:04.937Z,11.79
2024-01-24T07:51:05.435Z,12.26
2024-01-24T07:53:35.851Z,14.36
2024-01-24T07:56:20.840Z,13.26
2024-01-24T08:01:45.193Z,12.60
2024-01-24T08:04:34.483Z,12.36
2024-01-24T08:09:57.892Z,12.21
2024-01-24T08:12:31.790Z,12.16
2024-01-24T08:15:14.195Z,12.14
2024-01-24T08:17:48.098Z,12.37
2024-01-24T08:20:26.196Z,12.27
2024-01-24T08:23:03.232Z,12.44
2024-01-24T08:25:33.786Z,12.33
2024-01-24T08:28:14.021Z,12.29
2024-01-24T08:30:46.494Z,13.30
2024-01-24T08:33:17.390Z,13.44
2024-01-24T08:35:47.136Z,12.90
2024-01-24T08:38:19.452Z,14.15
2024-01-24T08:40:52.767Z,14.95
2024-01-24T08:43:20.395Z,15.67
2024-01-24T08:45:49.560Z,16.76
2024-01-24T08:48:44.483Z,16.34
2024-01-24T08:51:18.481Z,14.87
2024-01-24T08:53:48.831Z,15.29
2024-01-24T08:56:20.406Z,17.30
2024-01-24T08:58:47.920Z,18.94
2024-01-24T09:01:15.920Z,18.44
2024-01-24T09:03:45.028Z,18.55
2024-01-24T09:06:21.357Z,20.04
2024-01-24T09:08:54.999Z,21.90
2024-01-24T09:11:27.264Z,22.78
2024-01-24T09:13:56.689Z,21.17
2024-01-24T09:16:24.460Z,21.10
2024-01-24T09:18:54.940Z,21.55
2024-01-24T09:21:27.987Z,20.66
2024-01-24T09:24:00.938Z,21.63
2024-01-24T09:26:33.353Z,22.60
2024-01-24T09:29:24.533Z,23.18
2024-01-24T09:31:53.529Z,22.96
2024-01-24T09:34:32.352Z,21.79
2024-01-24T09:37:02.580Z,19.52
2024-01-24T09:39:30.545Z,17.56
2024-01-24T09:41:58.835Z,15.88
2024-01-24T09:44:28.654Z,15.26
2024-01-24T09:46:57.139Z,14.61
2024-01-24T09:49:25.286Z,14.85
2024-01-24T09:52:02.789Z,15.16
2024-01-24T09:54:37.663Z,15.72
2024-01-24T09:57:13.402Z,15.80
2024-01-24T09:59:41.349Z,15.33
2024-01-24T10:02:09.966Z,15.17
2024-01-24T10:04:39.346Z,14.39
2024-01-24T10:07:10.761Z,13.90
2024-01-24T10:12:33.265Z,13.81
2024-01-24T10:15:02.488Z,13.88
2024-01-24T10:17:30.685Z,13.90
2024-01-24T10:20:00.925Z,13.55
2024-01-24T10:22:29.790Z,13.75
2024-01-24T10:25:03.078Z,13.58
2024-01-24T10:27:34.964Z,13.45
2024-01-24T10:30:14.695Z,13.47
2024-01-24T10:32:50.314Z,13.14
2024-01-24T10:35:22.002Z,13.12
2024-01-24T10:37:56.632Z,13.01
2024-01-24T10:40:30.337Z,12.85
2024-01-24T10:43:09.047Z,12.68
2024-01-24T10:45:38.782Z,12.49
2024-01-24T10:48:09.815Z,12.38
2024-01-24T10:50:42.018Z,12.08
2024-01-24T10:53:16.488Z,11.46
2024-01-24T10:55:43.409Z,11.05
2024-01-24T10:58:17.669Z,10.81
2024-01-24T11:00:44.801Z,10.57
2024-01-24T11:03:12.255Z,10.49
2024-01-24T11:05:51.799Z,10.49
2024-01-24T11:08:36.283Z,10.42
2024-01-24T11:11:14.457Z,10.37
2024-01-24T11:13:44.185Z,10.33
2024-01-24T11:16:26.783Z,10.39
2024-01-24T11:19:00.089Z,10.52
2024-01-24T11:21:33.455Z,10.59
2024-01-24T11:24:00.744Z,10.74
2024-01-24T11:26:27.915Z,10.94
2024-01-24T11:29:14.701Z,10.90
2024-01-24T11:31:46.972Z,10.57
2024-01-24T11:34:15.754Z,10.39
2024-01-24T11:36:50.209Z,10.37
2024-01-24T11:39:32.064Z,10.38
2024-01-24T11:42:45.765Z,10.41
2024-01-24T11:45:28.962Z,10.35
2024-01-24T11:47:57.970Z,10.33
2024-01-24T11:50:25.232Z,10.42
2024-01-24T11:53:14.568Z,10.63
2024-01-24T11:55:58.442Z,10.88
2024-01-24T11:58:30.435Z,10.99
2024-01-24T12:01:04.674Z,10.98
2024-01-24T12:03:32.819Z,10.85
2024-01-24T12:06:01.101Z,10.86
2024-01-24T12:08:30.717Z,10.78
2024-01-24T12:11:00.692Z,10.67
2024-01-24T12:13:29.060Z,10.67
2024-01-24T12:15:57.001Z,10.72
2024-01-24T12:18:24.590Z,10.93
2024-01-24T12:20:56.856Z,10.96
2024-01-24T12:23:26.265Z,11.13
2024-01-24T12:25:55.134Z,11.16
2024-01-24T12:28:29.016Z,11.23
2024-01-24T12:30:59.051Z,11.20
2024-01-24T12:33:26.876Z,11.07
2024-01-24T12:35:57.280Z,11.13
2024-01-24T12:38:47.226Z,11.10
2024-01-24T12:41:23.733Z,10.94
2024-01-24T12:43:53.982Z,10.90
2024-01-24T12:46:24.396Z,10.84
2024-01-24T12:48:51.285Z,10.71
2024-01-24T12:51:18.452Z,10.54
2024-01-24T12:53:45.936Z,10.72
2024-01-24T12:56:16.955Z,10.61
2024-01-24T12:58:43.821Z,10.52
2024-01-24T13:01:10.527Z,10.47
2024-01-24T13:03:38.297Z,10.35
2024-01-24T13:06:05.594Z,10.31
2024-01-24T13:08:41.941Z,10.25
2024-01-24T13:11:09.273Z,10.23
2024-01-24T13:13:36.333Z,10.24
2024-01-24T13:16:04.289Z,10.22
2024-01-24T13:18:31.170Z,10.29
2024-01-24T13:20:58.306Z,10.33
2024-01-24T13:23:25.809Z,10.39
2024-01-24T13:25:52.496Z,10.47
2024-01-24T13:28:19.501Z,10.67
2024-01-24T13:30:50.520Z,10.77
2024-01-24T13:33:18.211Z,10.80
2024-01-24T13:35:47.344Z,10.86
2024-01-24T13:38:14.818Z,10.98
2024-01-24T13:40:41.804Z,11.07
2024-01-24T13:43:08.730Z,11.16
2024-01-24T13:45:38.549Z,11.20
2024-01-24T13:48:08.484Z,11.19
2024-01-24T13:50:38.842Z,11.14
2024-01-24T13:53:05.799Z,11.13
2024-01-24T13:55:32.869Z,11.10
2024-01-24T13:58:01.805Z,11.01
2024-01-24T14:00:28.848Z,11.03
2024-01-24T14:02:55.779Z,11.04
2024-01-24T14:05:22.693Z,10.99
2024-01-24T14:07:49.535Z,10.88
2024-01-24T14:10:16.311Z,10.69
2024-01-24T14:12:43.642Z,10.50
2024-01-24T14:15:19.869Z,10.33
2024-01-24T14:17:55.030Z,9.99
2024-01-24T14:20:22.114Z,9.67
2024-01-24T14:22:49.184Z,9.48
2024-01-24T14:25:15.890Z,9.44
2024-01-24T14:27:44.209Z,9.47
2024-01-24T14:30:11.713Z,9.51
2024-01-24T14:32:41.627Z,9.58
2024-01-24T14:35:09.209Z,9.60
2024-01-24T14:37:36.439Z,9.66
2024-01-24T14:40:03.698Z,9.76
2024-01-24T14:42:30.839Z,9.88
2024-01-24T14:44:57.610Z,9.94
2024-01-24T14:47:24.224Z,10.02
2024-01-24T14:49:51.170Z,10.02
2024-01-24T14:52:18.197Z,10.02
2024-01-24T14:54:45.833Z,10.02
2024-01-24T14:57:12.598Z,10.04
2024-01-24T14:59:39.259Z,10.02
2024-01-24T15:02:06.512Z,10.03
2024-01-24T15:04:33.384Z,10.00
2024-01-24T15:07:00.517Z,9.97
2024-01-24T15:09:27.354Z,9.94
2024-01-24T15:12:03.483Z,9.88
2024-01-24T15:14:30.817Z,9.88
2024-01-24T15:16:58.725Z,9.86
2024-01-24T15:19:30.033Z,9.86
2024-01-24T15:21:57.745Z,9.84
2024-01-24T15:24:38.638Z,9.81
2024-01-24T15:27:12.236Z,9.78
2024-01-24T15:29:40.295Z,9.73
2024-01-24T15:32:17.197Z,9.69
2024-01-24T15:34:44.522Z,9.64
2024-01-24T15:37:11.484Z,9.66
2024-01-24T15:39:43.957Z,9.62
2024-01-24T15:42:13.643Z,9.57
2024-01-24T15:44:43.934Z,9.58
2024-01-24T15:47:10.902Z,9.56
2024-01-24T15:49:39.077Z,9.54
2024-01-24T15:52:06.311Z,9.52
2024-01-24T15:54:37.476Z,9.50
2024-01-24T15:57:09.064Z,9.46
2024-01-24T15:59:38.847Z,9.44
2024-01-24T16:02:05.858Z,9.39
2024-01-24T16:04:34.788Z,9.37
2024-01-24T16:07:02.154Z,9.41
2024-01-24T16:09:29.498Z,9.48
2024-01-24T16:11:56.377Z,9.45
2024-01-24T16:14:28.185Z,9.46
2024-01-24T16:16:56.196Z,9.53
2024-01-24T16:19:23.759Z,9.52
2024-01-24T16:21:54.606Z,9.56
2024-01-24T16:24:21.488Z,9.56
2024-01-24T16:26:48.308Z,9.57
2024-01-24T16:29:15.470Z,9.66
2024-01-24T16:31:45.826Z,9.66
2024-01-24T16:34:12.802Z,9.66
2024-01-24T16:36:39.757Z,9.64
2024-01-24T16:39:06.734Z,9.64
2024-01-24T16:41:33.609Z,9.73
2024-01-24T16:44:00.580Z,9.75
2024-01-24T16:46:27.451Z,9.79
2024-01-24T16:48:56.493Z,9.76
2024-01-24T16:51:24.129Z,9.73
2024-01-24T16:53:51.062Z,9.73
2024-01-24T16:56:17.991Z,9.71
2024-01-24T16:58:44.902Z,9.69
2024-01-24T17:01:15.351Z,9.67
2024-01-24T17:03:48.792Z,9.66
2024-01-24T17:06:19.874Z,9.69
2024-01-24T17:08:50.106Z,9.68
2024-01-24T17:11:20.115Z,9.68
2024-01-24T17:13:59.692Z,9.67
2024-01-24T17:16:27.949Z,9.65
2024-01-24T17:18:54.755Z,9.66
2024-01-24T17:21:21.914Z,9.67
2024-01-24T17:23:49.215Z,9.67
2024-01-24T17:26:20.524Z,9.66
2024-01-24T17:28:47.468Z,9.66
2024-01-24T17:31:14.620Z,9.66
2024-01-24T17:33:41.325Z,9.63
2024-01-24T17:36:08.546Z,9.59
2024-01-24T17:38:35.656Z,9.57
2024-01-24T17:41:02.864Z,9.57
2024-01-24T17:43:31.017Z,9.54
2024-01-24T17:45:58.335Z,9.51
2024-01-24T17:48:25.310Z,9.52
2024-01-24T17:50:52.615Z,9.49
2024-01-24T17:53:19.654Z,9.50
2024-01-24T17:55:47.274Z,9.49
2024-01-24T17:58:14.334Z,9.47
2024-01-24T18:00:41.146Z,9.47
2024-01-24T18:03:08.570Z,9.46
2024-01-24T18:05:36.307Z,9.42
2024-01-24T18:08:08.046Z,9.40
2024-01-24T18:10:36.107Z,9.40
2024-01-24T18:13:28.928Z,9.33
2024-01-24T18:15:56.666Z,9.27
2024-01-24T18:18:26.295Z,9.21
2024-01-24T18:20:54.760Z,9.20
2024-01-24T18:23:22.481Z,9.18
2024-01-24T18:25:49.738Z,9.17
2024-01-24T18:28:17.618Z,9.16
2024-01-24T18:30:44.788Z,9.13
2024-01-24T18:33:14.756Z,9.11
2024-01-24T18:35:44.374Z,9.09
2024-01-24T18:38:11.135Z,9.05
2024-01-24T18:40:37.979Z,9.04
2024-01-24T18:43:05.097Z,9.06
2024-01-24T18:45:32.109Z,9.04
2024-01-24T18:47:59.516Z,9.01
2024-01-24T18:50:30.290Z,9.02
2024-01-24T18:52:57.059Z,9.00
2024-01-24T18:55:23.934Z,8.96
2024-01-24T18:57:51.157Z,8.94
2024-01-24T19:00:18.981Z,8.85
2024-01-24T19:02:49.063Z,8.72
2024-01-24T19:05:19.873Z,8.65
2024-01-24T19:07:52.490Z,8.64
2024-01-24T19:10:19.365Z,8.66
2024-01-24T19:12:46.581Z,8.69
2024-01-24T19:15:13.447Z,8.72
2024-01-24T19:17:40.907Z,8.77
2024-01-24T19:20:08.344Z,8.77
2024-01-24T19:22:35.207Z,8.78
2024-01-24T19:25:05.937Z,8.81
2024-01-24T19:27:33.111Z,8.82
2024-01-24T19:29:59.843Z,8.79
2024-01-24T19:32:26.668Z,8.77
2024-01-24T19:34:55.879Z,8.76
2024-01-24T19:37:23.637Z,8.72
2024-01-24T19:39:50.500Z,8.67
2024-01-24T19:42:17.928Z,8.64
2024-01-24T19:44:44.740Z,8.63
2024-01-24T19:47:54.031Z,8.62
2024-01-24T19:50:46.708Z,8.62
2024-01-24T19:53:57.394Z,8.62
2024-01-24T19:59:47.923Z,8.57
2024-01-24T20:02:14.957Z,8.57
2024-01-24T20:04:49.386Z,8.57
2024-01-24T20:07:19.568Z,8.56
2024-01-24T20:09:46.625Z,8.57
2024-01-24T20:12:13.604Z,8.58
2024-01-24T20:14:40.501Z,8.58
2024-01-24T20:17:07.442Z,8.57
2024-01-24T20:19:34.485Z,8.46
2024-01-24T20:22:01.261Z,8.28
2024-01-24T20:24:28.313Z,8.14
2024-01-24T20:26:55.063Z,8.08
2024-01-24T20:29:26.527Z,8.08
2024-01-24T20:31:56.586Z,8.09
2024-01-24T20:34:23.484Z,8.11
2024-01-24T20:36:50.384Z,8.13
2024-01-24T20:39:19.568Z,8.15
2024-01-24T20:41:47.884Z,8.19
2024-01-24T20:44:20.492Z,8.16
2024-01-24T20:46:47.226Z,8.09
2024-01-24T20:49:17.385Z,8.04
2024-01-24T20:51:47.952Z,8.05
2024-01-24T20:54:18.674Z,8.06
2024-01-24T20:56:45.558Z,8.14
2024-01-24T20:59:12.497Z,8.13
2024-01-24T21:01:39.443Z,8.01
2024-01-24T21:04:06.551Z,7.76
2024-01-24T21:06:47.711Z,7.57
2024-01-24T21:09:18.779Z,7.31
2024-01-24T21:11:48.821Z,7.21
2024-01-24T21:14:15.618Z,7.09
2024-01-24T21:16:44.200Z,6.97
2024-01-24T21:19:17.506Z,6.87
2024-01-24T21:21:44.952Z,6.84
2024-01-24T21:24:13.895Z,6.86
2024-01-24T21:26:41.157Z,6.88
2024-01-24T21:29:07.954Z,6.94
2024-01-24T21:31:34.752Z,6.94
2024-01-24T21:34:02.340Z,6.99
2024-01-24T21:36:29.129Z,7.03
2024-01-24T21:38:55.873Z,7.08
2024-01-24T21:41:22.532Z,7.14
2024-01-24T21:43:49.377Z,7.21
2024-01-24T21:46:16.570Z,7.29
2024-01-24T21:48:43.290Z,7.28
2024-01-24T21:51:09.972Z,7.30
2024-01-24T21:53:36.701Z,7.33
2024-01-24T21:56:03.502Z,7.40
2024-01-24T21:58:30.236Z,7.40
2024-01-24T22:00:57.104Z,7.42
2024-01-24T22:03:23.893Z,7.46
2024-01-24T22:05:50.562Z,7.47
2024-01-24T22:08:19.483Z,7.54
2024-01-24T22:10:46.497Z,7.64
2024-01-24T22:13:13.429Z,7.71
2024-01-24T22:15:40.490Z,7.76
2024-01-24T22:18:08.287Z,7.77
2024-01-24T22:20:35.460Z,7.75
2024-01-24T22:23:02.181Z,7.76
2024-01-24T22:25:29.463Z,7.80
2024-01-24T22:27:56.921Z,7.85
2024-01-24T22:30:23.884Z,7.86
2024-01-24T22:32:50.692Z,7.89
2024-01-24T22:35:18.708Z,7.92
2024-01-24T22:37:45.585Z,7.95
2024-01-24T22:40:12.421Z,7.97
2024-01-24T22:42:43.000Z,7.95
2024-01-24T22:45:39.309Z,7.99
2024-01-24T22:48:07.177Z,8.00
2024-01-24T22:50:34.244Z,8.03
2024-01-24T22:53:01.182Z,8.06
2024-01-24T22:55:28.078Z,8.09
2024-01-24T22:57:55.048Z,8.07
2024-01-24T23:00:23.090Z,8.07
2024-01-24T23:02:50.103Z,8.06
2024-01-24T23:05:17.642Z,8.06
2024-01-24T23:07:45.291Z,8.04
2024-01-24T23:10:12.232Z,8.02
2024-01-24T23:12:53.136Z,8.04
2024-01-24T23:15:24.198Z,8.01
2024-01-24T23:17:53.598Z,7.94
2024-01-24T23:20:22.355Z,7.92
2024-01-24T23:22:51.390Z,7.93
2024-01-24T23:25:19.080Z,7.93
2024-01-24T23:27:46.570Z,7.92
2024-01-24T23:30:17.324Z,7.93
2024-01-24T23:32:48.674Z,7.91
2024-01-24T23:35:16.581Z,7.92
2024-01-24T23:37:44.345Z,7.94
2024-01-24T23:40:12.479Z,7.94
2024-01-24T23:42:39.950Z,7.91
2024-01-24T23:45:07.040Z,7.89
2024-01-24T23:47:33.831Z,7.87
2024-01-24T23:50:02.653Z,7.87
2024-01-24T23:52:29.809Z,7.87
2024-01-24T23:54:56.567Z,7.85
2024-01-24T23:57:23.332Z,7.84
2024-01-24T23:59:50.136Z,7.83
